Time;durP1;ratioP1;P1;durP2;ratioP2;P2;SDS_P1;SDS_P2;PMS_P1;PMS_P2;Temp;Humidity;BMP_temperature;BMP_pressure;BME280_temperature;BME280_humidity;BME280_pressure;Samples;Min_cycle;Max_cycle;Signal;HPM_P1;HPM_P2
2022/06/21 00:01:28;;;;;;;16.33;12.00;;;;;;;19.18;84.33;98626.34;5014016;28;20237;-85
2022/06/21 00:03:55;;;;;;;14.37;12.87;;;;;;;19.45;84.57;98681.88;5013839;28;20272;-83
2022/06/21 00:06:23;;;;;;;15.60;12.87;;;;;;;19.90;85.66;98779.34;5014329;28;20163;-86
2022/06/21 00:08:49;;;;;;;16.17;12.53;;;;;;;19.75;86.68;98784.50;5014438;28;20167;-85
2022/06/21 00:11:28;;;;;;;17.17;13.47;;;;;;;19.37;89.86;98778.56;5014791;28;20163;-84
2022/06/21 00:13:54;;;;;;;16.53;13.57;;;;;;;18.98;94.64;98789.69;5014407;28;20159;-87
2022/06/21 00:16:20;;;;;;;15.73;13.27;;;;;;;17.20;94.44;98466.63;5014472;28;20192;-86
2022/06/21 00:18:48;;;;;;;16.63;13.73;;;;;;;18.28;95.81;98666.56;5014649;28;20163;-86
2022/06/21 00:21:23;;;;;;;15.50;13.30;;;;;;;19.20;95.26;98781.16;5015032;28;20163;-85
2022/06/21 00:23:50;;;;;;;16.57;13.63;;;;;;;18.89;97.38;98771.75;5014720;28;20301;-86
2022/06/21 00:26:18;;;;;;;15.70;13.27;;;;;;;18.07;99.25;98684.47;5014263;28;20167;-87
2022/06/21 00:28:44;;;;;;;15.60;13.43;;;;;;;18.63;100.00;98778.56;5014276;28;20194;-86
2022/06/21 00:31:18;;;;;;;15.70;13.53;;;;;;;18.61;100.00;98776.00;5013294;28;20229;-86
2022/06/21 00:33:44;;;;;;;15.70;13.70;;;;;;;16.44;99.37;98387.13;5014417;28;20244;-86
2022/06/21 00:36:25;;;;;;;16.63;13.47;;;;;;;18.14;100.00;98693.00;5014644;28;20163;-86
2022/06/21 00:38:53;;;;;;;17.43;14.47;;;;;;;18.23;100.00;98778.44;5014032;28;20252;-85
2022/06/21 00:41:30;;;;;;;17.97;13.93;;;;;;;16.23;100.00;98463.66;5014238;28;20850;-86
2022/06/21 00:43:55;;;;;;;20.57;14.60;;;;;;;16.33;100.00;98485.84;5012925;28;20585;-87
2022/06/21 00:46:45;;;;;;;18.67;14.50;;;;;;;17.91;100.00;98759.53;5014628;28;20254;-85
2022/06/21 00:49:35;;;;;;;18.00;14.43;;;;;;;16.56;100.00;98520.09;5014418;28;20158;-87
2022/06/21 00:52:13;;;;;;;18.03;14.30;;;;;;;17.10;100.00;98599.63;5014336;28;20225;-85
2022/06/21 00:54:54;;;;;;;16.07;13.70;;;;;;;18.03;100.00;98751.91;5014014;28;20582;-83
2022/06/21 00:57:23;;;;;;;15.63;13.27;;;;;;;16.89;100.00;98591.81;5013361;28;20183;-85
2022/06/21 00:59:51;;;;;;;17.77;14.03;;;;;;;17.07;100.00;98611.53;5013361;28;20261;-85
2022/06/21 01:02:31;;;;;;;17.13;13.23;;;;;;;17.47;100.00;98694.47;5012039;28;20276;-85
2022/06/21 01:04:59;;;;;;;17.93;14.07;;;;;;;17.74;100.00;98739.84;5013140;28;20529;-84
2022/06/21 01:07:24;;;;;;;21.67;14.87;;;;;;;16.64;100.00;98604.44;5013126;28;20159;-84
2022/06/21 01:10:01;;;;;;;20.20;14.13;;;;;;;16.68;100.00;98601.91;5012921;28;20624;-84
2022/06/21 01:12:52;;;;;;;17.33;13.90;;;;;;;17.45;100.00;98731.97;5013063;28;20169;-84
2022/06/21 01:15:21;;;;;;;16.90;13.40;;;;;;;17.54;100.00;98732.06;5012954;28;20253;-83
2022/06/21 01:17:50;;;;;;;15.97;13.53;;;;;;;17.20;100.00;98735.22;5012763;28;20278;-84
2022/06/21 01:20:20;;;;;;;15.90;12.83;;;;;;;16.96;100.00;98675.41;5012814;28;20197;-84
2022/06/21 01:23:04;;;;;;;17.97;13.03;;;;;;;17.57;100.00;98732.06;5012726;28;20162;-84
2022/06/21 01:25:51;;;;;;;14.90;12.43;;;;;;;17.71;100.00;98734.69;5012503;28;20165;-85
2022/06/21 01:28:17;;;;;;;17.27;12.40;;;;;;;17.71;100.00;98745.78;5012055;28;20159;-84
2022/06/21 01:30:56;;;;;;;15.40;11.87;;;;;;;17.38;100.00;98743.88;5012637;28;20190;-83
2022/06/21 01:33:31;;;;;;;13.67;11.70;;;;;;;17.06;100.00;98659.25;5012558;28;20174;-84
2022/06/21 01:36:01;;;;;;;14.33;11.67;;;;;;;17.65;100.00;98725.28;5012446;28;20613;-85
2022/06/21 01:38:34;;;;;;;15.63;12.10;;;;;;;17.23;100.00;98644.00;5012064;28;20558;-85
2022/06/21 01:41:08;;;;;;;15.60;11.23;;;;;;;17.76;100.00;98733.88;5012078;28;20773;-84
2022/06/21 01:43:34;;;;;;;12.37;10.70;;;;;;;17.78;100.00;98747.53;5012184;28;20163;-86
2022/06/21 01:46:10;;;;;;;18.20;10.60;;;;;;;17.18;100.00;98629.47;5010899;28;20549;-85
2022/06/21 01:48:42;;;;;;;11.77;10.17;;;;;;;17.75;100.00;98703.13;5012171;28;20159;-85
2022/06/21 01:51:13;;;;;;;16.17;11.10;;;;;;;17.76;100.00;98682.66;5012211;28;20174;-85
2022/06/21 01:53:39;;;;;;;14.90;10.37;;;;;;;17.35;100.00;98618.50;5011978;28;20174;-85
2022/06/21 01:56:12;;;;;;;18.60;11.63;;;;;;;18.01;100.00;98729.69;5012241;28;20171;-85
2022/06/21 01:58:43;;;;;;;17.87;10.50;;;;;;;17.76;100.00;98721.06;5011889;28;20613;-85
2022/06/21 02:01:16;;;;;;;13.27;10.30;;;;;;;17.50;100.00;98661.16;5011854;28;20174;-82
2022/06/21 02:03:44;;;;;;;13.80;9.90;;;;;;;18.04;100.00;98720.31;5011905;28;20241;-82
2022/06/21 02:06:13;;;;;;;14.40;10.20;;;;;;;17.38;100.00;98627.88;5011887;28;20236;-83
2022/06/21 02:08:53;;;;;;;12.30;9.70;;;;;;;17.37;100.00;98626.16;5011877;28;20155;-83
2022/06/21 02:11:27;;;;;;;12.93;10.40;;;;;;;16.94;100.00;98636.19;5011999;28;20627;-84
2022/06/21 02:16:45;;;;;;;11.67;9.90;;;;;;;17.16;100.00;98718.16;5011987;28;20256;-84
2022/06/21 02:19:21;;;;;;;10.67;9.50;;;;;;;17.21;100.00;98719.88;4994472;28;20175;-84
2022/06/21 02:21:47;;;;;;;12.07;9.13;;;;;;;15.97;100.00;98506.84;5012129;28;20638;-83
2022/06/21 02:24:14;;;;;;;11.03;8.87;;;;;;;16.61;100.00;98617.19;5011836;28;20171;-83
2022/06/21 02:26:40;;;;;;;13.57;9.20;;;;;;;17.30;99.90;98729.31;5011674;28;20163;-83
2022/06/21 02:29:06;;;;;;;11.27;9.13;;;;;;;16.21;99.34;98541.91;5010952;28;20630;-83
2022/06/21 02:31:32;;;;;;;11.87;9.70;;;;;;;17.41;99.21;98731.09;5011665;28;20175;-83
2022/06/21 02:34:04;;;;;;;10.83;8.80;;;;;;;16.74;98.30;98588.31;5011815;28;20229;-82
2022/06/21 02:36:41;;;;;;;13.07;9.57;;;;;;;17.47;98.39;98714.94;5011644;28;20279;-83
2022/06/21 02:39:12;;;;;;;12.43;8.63;;;;;;;16.36;97.37;98512.25;5012705;28;20163;-83
2022/06/21 02:41:43;;;;;;;11.00;8.67;;;;;;;17.45;96.78;98725.13;5015395;28;20265;-83
2022/06/21 02:44:30;;;;;;;10.93;8.70;;;;;;;17.55;96.99;98741.44;5015558;28;20201;-83
2022/06/21 02:47:01;;;;;;;13.27;9.80;;;;;;;15.90;96.44;98490.63;5015813;28;20162;-83
2022/06/21 02:49:34;;;;;;;14.23;9.70;;;;;;;17.41;95.98;98738.78;5014735;28;20162;-83
2022/06/21 02:52:30;;;;;;;15.57;10.13;;;;;;;17.51;95.49;98734.56;5016271;28;20243;-84
2022/06/21 02:55:20;;;;;;;18.43;10.50;;;;;;;16.43;94.58;98534.44;4974942;28;20242;-84
2022/06/21 02:57:58;;;;;;;15.27;9.80;;;;;;;17.15;94.67;98660.16;4977936;28;20251;-85
2022/06/21 03:00:24;;;;;;;17.10;9.90;;;;;;;16.74;94.31;98572.97;4975352;28;20202;-87
2022/06/21 03:02:51;;;;;;;15.93;9.30;;;;;;;17.03;93.66;98641.31;4975879;28;20220;-86
2022/06/21 03:05:21;;;;;;;12.90;9.17;;;;;;;17.73;92.60;98730.44;4976032;28;20729;-85
2022/06/21 03:07:58;;;;;;;10.53;8.43;;;;;;;16.79;91.58;98577.28;4974964;28;20156;-85
2022/06/21 03:10:28;;;;;;;14.17;9.40;;;;;;;17.44;91.74;98671.41;4974727;28;20213;-84
2022/06/21 03:13:22;;;;;;;13.40;8.90;;;;;;;15.39;91.57;98298.84;4974382;28;20703;-86
2022/06/21 03:15:56;;;;;;;10.80;8.37;;;;;;;16.96;92.01;98572.25;4974585;28;20176;-86
2022/06/21 03:18:28;;;;;;;14.27;8.87;;;;;;;17.24;92.47;98627.81;4974679;28;20207;-84
2022/06/21 03:20:55;;;;;;;11.77;8.47;;;;;;;17.40;93.86;98667.09;4974928;28;20701;-85
2022/06/21 03:23:22;;;;;;;14.30;8.63;;;;;;;15.80;95.22;98412.28;4974740;28;20188;-89
2022/06/21 03:25:53;;;;;;;12.70;9.10;;;;;;;17.21;98.03;98721.59;4974794;28;20214;-84
2022/06/21 03:28:41;;;;;;;15.20;9.00;;;;;;;15.73;97.20;98460.72;4975887;28;20160;-86
2022/06/21 03:31:17;;;;;;;13.00;9.43;;;;;;;17.37;97.88;98703.78;4999930;28;20217;-86
2022/06/21 03:33:49;;;;;;;14.10;9.17;;;;;;;17.42;96.54;98696.09;5020166;28;20194;-86
2022/06/21 03:36:19;;;;;;;11.43;8.47;;;;;;;17.37;97.01;98701.22;5017436;28;20162;-85
2022/06/21 03:38:52;;;;;;;11.13;8.57;;;;;;;15.13;97.42;98341.16;5015035;28;20273;-85
2022/06/21 03:44:13;;;;;;;14.00;9.03;;;;;;;17.59;94.99;98689.41;5016511;28;20585;-85
2022/06/21 03:46:56;;;;;;;12.90;9.23;;;;;;;16.53;95.33;98514.94;5018974;28;20170;-85
2022/06/21 03:49:36;;;;;;;13.77;9.10;;;;;;;17.40;94.24;98618.50;5017747;28;20166;-86
2022/06/21 03:52:07;;;;;;;12.73;8.90;;;;;;;17.41;92.50;98610.84;5014799;28;20635;-86
2022/06/21 03:54:41;;;;;;;22.00;8.63;;;;;;;16.52;91.08;98418.66;5016687;28;20159;-86
2022/06/21 03:57:12;;;;;;;12.67;8.10;;;;;;;15.65;89.05;98269.31;5015247;28;20212;-86
2022/06/21 03:59:47;;;;;;;10.60;8.50;;;;;;;16.43;88.20;98324.09;5015682;28;20159;-85
2022/06/21 04:02:26;;;;;;;13.60;8.60;;;;;;;17.85;86.28;98559.78;5014123;28;20169;-86
2022/06/21 04:04:54;;;;;;;10.43;8.20;;;;;;;18.81;86.54;98691.41;5013232;28;20181;-86
2022/06/21 04:07:43;;;;;;;14.07;8.70;;;;;;;18.91;85.76;98693.09;5014510;28;20611;-85
2022/06/21 04:10:16;;;;;;;18.77;11.63;;;;;;;19.11;84.42;98682.81;5013199;28;20597;-86
2022/06/21 04:12:49;;;;;;;150.47;99.37;;;;;;;19.11;83.54;98691.38;4992924;28;20230;-88
2022/06/21 04:15:33;;;;;;;352.33;235.77;;;;;;;19.27;83.04;98690.47;4992511;28;20198;-87
2022/06/21 04:18:19;;;;;;;391.77;257.07;;;;;;;19.39;81.72;98690.47;5004288;28;20202;-85
2022/06/21 04:21:00;;;;;;;249.17;145.17;;;;;;;18.60;81.67;98570.88;5013269;28;20191;-90
2022/06/21 04:23:32;;;;;;;165.17;99.33;;;;;;;19.60;81.49;98686.13;5024265;28;20182;-86
2022/06/21 04:26:15;;;;;;;24.00;17.27;;;;;;;19.60;81.11;98681.84;5032802;28;20319;-86
2022/06/21 04:29:05;;;;;;;14.80;11.63;;;;;;;19.72;79.77;98673.25;5036877;28;20231;-85
2022/06/21 04:31:40;;;;;;;42.07;28.53;;;;;;;19.33;79.30;98567.25;4996256;28;20241;-84
2022/06/21 04:34:26;;;;;;;37.20;25.17;;;;;;;19.60;78.89;98593.69;5008592;28;20170;-85
2022/06/21 04:36:58;;;;;;;18.37;12.83;;;;;;;20.37;78.32;98693.47;5012607;28;20218;-86
2022/06/21 04:39:38;;;;;;;13.33;10.10;;;;;;;20.33;79.16;98700.31;4994977;28;20186;-85
2022/06/21 04:42:12;;;;;;;14.43;8.47;;;;;;;20.15;80.03;98700.41;5012749;28;20182;-85
2022/06/21 04:44:47;;;;;;;20.03;8.73;;;;;;;20.00;81.37;98695.34;5013114;28;20272;-86
2022/06/21 04:47:26;;;;;;;9.87;8.53;;;;;;;19.86;82.21;98690.28;5007271;28;20193;-86
2022/06/21 04:49:58;;;;;;;11.10;8.63;;;;;;;18.73;82.55;98501.63;4998348;28;20175;-86
2022/06/21 04:52:48;;;;;;;15.03;8.63;;;;;;;18.87;82.40;98493.88;4992722;28;20179;-86
2022/06/21 04:55:16;;;;;;;12.13;8.53;;;;;;;20.32;80.32;98678.06;4993873;28;20175;-84
2022/06/21 04:57:45;;;;;;;11.33;8.13;;;;;;;20.66;77.66;98677.81;4993608;28;20211;-86
2022/06/21 05:00:20;;;;;;;13.73;8.70;;;;;;;19.92;75.66;98494.16;4994344;28;20211;-85
2022/06/21 05:02:48;;;;;;;10.03;8.30;;;;;;;20.25;73.62;98503.31;4994655;28;20190;-87
2022/06/21 05:05:27;;;;;;;13.70;8.63;;;;;;;20.66;75.24;98618.66;4997188;28;20679;-86
2022/06/21 05:08:03;;;;;;;10.30;8.40;;;;;;;20.88;76.67;98694.75;5014686;28;20221;-86
2022/06/21 05:10:33;;;;;;;13.37;9.10;;;;;;;20.37;77.10;98616.31;5014552;28;20209;-86
2022/06/21 05:13:03;;;;;;;11.80;9.40;;;;;;;19.85;78.40;98559.28;5006627;28;20230;-86
2022/06/21 05:15:35;;;;;;;12.90;9.60;;;;;;;20.87;78.85;98714.50;5000567;28;20193;-88
2022/06/21 05:18:07;;;;;;;11.47;9.40;;;;;;;19.66;77.45;98466.13;5021730;28;20207;-87
2022/06/21 05:20:37;;;;;;;12.70;10.37;;;;;;;20.24;77.56;98517.91;5023518;28;20175;-86
2022/06/21 05:23:07;;;;;;;12.47;9.60;;;;;;;21.07;75.71;98640.56;5034341;28;20185;-88
2022/06/21 05:25:36;;;;;;;17.17;12.30;;;;;;;19.87;74.60;98382.88;5005768;28;20187;-88
2022/06/21 05:28:11;;;;;;;14.83;10.67;;;;;;;22.02;71.51;98660.91;5012702;28;20185;-88
2022/06/21 05:30:45;;;;;;;10.90;8.63;;;;;;;22.36;69.75;98692.22;5011485;28;20174;-85
2022/06/21 05:33:31;;;;;;;9.33;7.70;;;;;;;21.14;68.65;98497.22;5011529;28;20183;-85
2022/06/21 05:35:56;;;;;;;9.43;7.53;;;;;;;21.22;68.90;98485.09;5009294;28;20191;-85
2022/06/21 05:38:25;;;;;;;11.10;7.33;;;;;;;22.39;67.56;98694.75;4991645;28;20718;-86
2022/06/21 05:40:59;;;;;;;13.77;7.90;;;;;;;21.61;68.11;98501.72;4991818;28;20726;-86
2022/06/21 05:43:32;;;;;;;12.37;7.30;;;;;;;20.92;67.44;98360.22;5007502;28;20207;-88
2022/06/21 05:46:01;;;;;;;8.80;6.53;;;;;;;21.72;65.43;98510.13;5010353;28;20224;-87
2022/06/21 05:48:32;;;;;;;8.90;6.47;;;;;;;21.04;64.02;98390.09;5011302;28;20241;-85
2022/06/21 05:51:00;;;;;;;9.23;6.53;;;;;;;21.50;62.22;98378.25;5010318;28;20570;-86
2022/06/21 05:53:52;;;;;;;7.80;6.20;;;;;;;22.83;59.38;98597.69;5011222;28;20209;-88
2022/06/21 05:56:22;;;;;;;9.57;6.00;;;;;;;22.86;59.51;98527.94;5010987;28;20186;-88
2022/06/21 05:59:12;;;;;;;7.47;4.97;;;;;;;23.71;55.38;98680.41;5011455;28;20285;-88
2022/06/21 06:01:52;;;;;;;7.37;5.40;;;;;;;22.77;55.95;98491.16;5011017;28;20353;-89
2022/06/21 06:04:29;;;;;;;6.47;5.47;;;;;;;24.41;53.30;98696.13;5012536;28;20731;-86
2022/06/21 06:06:57;;;;;;;6.17;5.20;;;;;;;24.53;52.53;98679.47;5009602;28;20193;-87
2022/06/21 06:09:26;;;;;;;5.60;4.80;;;;;;;24.36;51.06;98685.03;5012258;28;20262;-85
2022/06/21 06:12:06;;;;;;;7.00;5.10;;;;;;;22.76;51.08;98423.22;5016823;28;20237;-84
2022/06/21 06:14:37;;;;;;;7.43;4.90;;;;;;;24.60;49.76;98681.03;5033992;28;20190;-85
2022/06/21 06:17:12;;;;;;;5.50;5.00;;;;;;;24.74;49.26;98689.31;5020307;28;20209;-85
2022/06/21 06:19:45;;;;;;;7.30;5.27;;;;;;;23.96;49.92;98522.13;5024958;28;20193;-86
2022/06/21 06:22:29;;;;;;;8.07;5.47;;;;;;;24.10;50.31;98547.69;5017539;28;20190;-87
2022/06/21 06:25:27;;;;;;;6.07;5.30;;;;;;;25.36;49.36;98686.84;5015597;28;20209;-86
2022/06/21 06:28:12;;;;;;;7.67;5.60;;;;;;;25.45;50.21;98678.84;4973686;28;20242;-86
2022/06/21 06:30:52;;;;;;;5.90;5.30;;;;;;;24.61;51.07;98514.47;4973717;28;20222;-86
2022/06/21 06:33:17;;;;;;;8.00;5.47;;;;;;;26.05;51.28;98703.03;4973482;28;20254;-83
2022/06/21 06:35:44;;;;;;;7.17;5.87;;;;;;;26.07;49.25;98626.00;4973348;28;20176;-84
2022/06/21 06:38:13;;;;;;;6.57;5.40;;;;;;;26.69;48.48;98707.13;4972399;28;20315;-85
2022/06/21 06:40:52;;;;;;;7.27;5.70;;;;;;;26.33;49.34;98646.00;4972839;28;20253;-87
2022/06/21 06:43:40;;;;;;;7.93;5.88;;;;;;;25.86;48.83;98561.81;4956654;28;20645;-85
2022/06/21 06:46:07;;;;;;;7.50;6.00;;;;;;;26.34;49.64;98609.59;4984569;28;20776;-86
2022/06/21 06:48:39;;;;;;;8.10;5.95;;;;;;;26.50;50.14;98702.56;4990246;28;20223;-83
2022/06/21 06:51:13;;;;;;;8.82;5.53;;;;;;;26.26;50.42;98699.00;4992233;28;20195;-85
2022/06/21 06:53:48;;;;;;;6.20;5.50;;;;;;;25.61;50.02;98581.63;4992270;28;20200;-85
2022/06/21 06:56:21;;;;;;;5.75;5.25;;;;;;;26.48;49.08;98694.00;4991789;28;20198;-85
2022/06/21 06:58:57;;;;;;;8.38;5.65;;;;;;;25.42;49.91;98528.59;4992065;28;20223;-83
2022/06/21 07:01:40;;;;;;;7.38;5.45;;;;;;;25.68;48.52;98570.19;4991956;28;20186;-84
2022/06/21 07:04:11;;;;;;;7.07;5.65;;;;;;;25.82;47.84;98538.63;5001020;28;20282;-84
2022/06/21 07:06:53;;;;;;;12.52;11.15;;;;;;;26.79;46.95;98614.19;5014732;28;20181;-85
2022/06/21 07:09:48;;;;;;;6.93;5.32;;;;;;;27.11;47.00;98702.31;5012275;28;20212;-84
2022/06/21 07:12:21;;;;;;;10.23;8.15;;;;;;;27.09;47.50;98698.88;4966111;28;20733;-84
2022/06/21 07:14:49;;;;;;;22.45;16.25;;;;;;;26.32;46.44;98550.84;4991743;28;20200;-84
2022/06/21 07:17:25;;;;;;;30.77;21.30;;;;;;;27.37;47.31;98691.84;4990990;28;20233;-84
2022/06/21 07:19:53;;;;;;;41.50;25.75;;;;;;;27.08;45.30;98678.16;4990991;28;20273;-84
2022/06/21 07:22:21;;;;;;;13.70;8.68;;;;;;;27.83;44.91;98692.81;4992202;28;20238;-84
2022/06/21 07:25:03;;;;;;;13.73;9.38;;;;;;;27.96;42.94;98697.50;4990629;28;20548;-82
2022/06/21 07:27:31;;;;;;;13.77;9.02;;;;;;;27.30;42.80;98534.41;4990108;28;20201;-82
2022/06/21 07:30:04;;;;;;;39.58;23.33;;;;;;;27.11;42.87;98502.19;4991440;28;20211;-83
2022/06/21 07:32:38;;;;;;;18.13;10.30;;;;;;;26.81;43.07;98438.38;4991322;28;20274;-83
2022/06/21 07:35:07;;;;;;;19.27;10.90;;;;;;;28.27;42.68;98691.13;4991743;28;20205;-84
2022/06/21 07:37:46;;;;;;;21.08;13.13;;;;;;;28.73;42.45;98677.19;4991367;28;20221;-83
2022/06/21 07:40:38;;;;;;;17.98;9.85;;;;;;;28.68;41.08;98656.50;4991083;28;20403;-84
2022/06/21 07:43:11;;;;;;;24.63;13.05;;;;;;;28.21;41.49;98580.28;4920568;29;20211;-83
2022/06/21 07:45:54;;;;;;;15.38;9.50;;;;;;;28.79;41.54;98684.75;4913610;29;20608;-83
2022/06/21 07:48:48;;;;;;;30.45;15.18;;;;;;;28.85;41.74;98684.47;4927758;29;20196;-83
2022/06/21 07:51:24;;;;;;;15.13;8.50;;;;;;;28.83;41.31;98665.47;4952141;29;20238;-85
2022/06/21 07:54:03;;;;;;;8.63;6.50;;;;;;;28.66;42.44;98680.03;4952226;29;20200;-85
2022/06/21 07:56:37;;;;;;;9.32;6.10;;;;;;;28.81;42.48;98618.63;4952535;29;20198;-84
2022/06/21 07:59:23;;;;;;;6.00;4.97;;;;;;;28.37;42.86;98614.38;4953008;29;20912;-85
2022/06/21 08:07:35;;;;;;;14.30;7.90;;;;;;;28.37;43.53;98524.09;4953326;29;20231;-85
2022/06/21 08:10:26;;;;;;;9.13;5.70;;;;;;;29.73;42.29;98691.94;4953326;29;20164;-86
2022/06/21 08:12:54;;;;;;;11.07;6.10;;;;;;;29.62;42.25;98662.88;4953144;29;20190;-84
2022/06/21 08:15:23;;;;;;;6.15;5.00;;;;;;;30.22;41.40;98686.19;4953277;29;20182;-84
2022/06/21 08:18:04;;;;;;;5.70;5.10;;;;;;;29.06;41.77;98597.56;4952985;29;20201;-84
2022/06/21 08:20:42;;;;;;;5.70;5.10;;;;;;;27.22;41.67;98281.69;4988784;28;20224;-85
2022/06/21 08:23:12;;;;;;;8.27;5.50;;;;;;;28.83;42.49;98595.94;5013472;28;20161;-85
2022/06/21 08:26:04;;;;;;;5.90;5.30;;;;;;;29.63;43.32;98691.53;5012345;28;20170;-87
2022/06/21 08:28:59;;;;;;;6.32;5.60;;;;;;;29.93;43.46;98698.91;4969124;28;20205;-85
2022/06/21 08:31:38;;;;;;;7.60;5.00;;;;;;;29.20;42.12;98571.72;4970977;28;20188;-85
2022/06/21 08:34:15;;;;;;;5.82;5.28;;;;;;;30.09;42.54;98699.91;4972164;28;20666;-85
2022/06/21 08:36:48;;;;;;;7.72;5.80;;;;;;;30.08;42.41;98698.22;4972055;28;20194;-86
2022/06/21 08:39:21;;;;;;;7.75;5.40;;;;;;;29.60;42.89;98639.47;4969860;28;20671;-83
2022/06/21 08:42:02;;;;;;;5.93;5.22;;;;;;;29.84;42.45;98700.19;4970572;28;20672;-85
2022/06/21 08:44:42;;;;;;;8.75;5.05;;;;;;;30.06;41.45;98697.44;4970364;28;20191;-85
2022/06/21 08:47:26;;;;;;;8.57;5.00;;;;;;;30.50;41.50;98700.59;4970225;28;20257;-85
2022/06/21 08:50:25;;;;;;;7.80;5.53;;;;;;;30.72;40.80;98702.09;4951341;29;20201;-84
2022/06/21 08:53:09;;;;;;;6.47;5.32;;;;;;;30.48;41.35;98647.56;4950679;29;20206;-84
2022/06/21 08:55:51;;;;;;;6.65;5.00;;;;;;;31.44;40.25;98691.50;4951049;29;20195;-84
2022/06/21 08:58:28;;;;;;;6.63;5.30;;;;;;;31.02;40.32;98698.91;4958916;28;20217;-84
2022/06/21 09:01:01;;;;;;;6.45;5.00;;;;;;;29.24;40.28;98472.47;4970669;28;20278;-84
2022/06/21 09:03:52;;;;;;;10.20;5.57;;;;;;;30.52;40.12;98664.81;4970245;28;20218;-84
2022/06/21 09:06:56;;;;;;;7.03;5.60;;;;;;;31.09;39.97;98692.47;5001711;28;20196;-83
2022/06/21 09:09:49;;;;;;;8.98;5.28;;;;;;;30.91;39.45;98628.81;5005851;28;20665;-84
2022/06/21 09:12:30;;;;;;;8.10;4.90;;;;;;;31.68;39.04;98674.53;5003133;28;20189;-85
2022/06/21 09:15:21;;;;;;;9.02;5.50;;;;;;;31.86;39.12;98691.88;4989429;28;20707;-85
2022/06/21 09:18:11;;;;;;;7.03;5.40;;;;;;;31.71;38.82;98684.84;4992304;28;20213;-85
2022/06/21 09:20:46;;;;;;;5.50;4.95;;;;;;;31.42;39.01;98688.97;5007959;28;20205;-86
2022/06/21 09:23:32;;;;;;;8.52;5.38;;;;;;;31.54;39.42;98687.50;4989163;28;20219;-86
2022/06/21 09:26:16;;;;;;;9.15;4.95;;;;;;;31.97;37.88;98688.69;4989418;28;20218;-86
2022/06/21 09:28:47;;;;;;;6.70;4.55;;;;;;;31.14;38.15;98557.06;4999807;28;20209;-86
2022/06/21 09:31:28;;;;;;;8.43;4.45;;;;;;;32.06;37.74;98652.38;4992542;28;20565;-85
2022/06/21 09:34:28;;;;;;;6.10;4.70;;;;;;;32.30;37.22;98639.69;5008074;28;20622;-85
2022/06/21 09:36:53;;;;;;;5.50;4.88;;;;;;;32.80;37.50;98655.16;5008903;28;20193;-85
2022/06/21 09:39:30;;;;;;;5.38;4.85;;;;;;;33.25;37.03;98644.59;5008321;28;20706;-85
2022/06/21 09:42:08;;;;;;;6.80;4.40;;;;;;;32.60;36.50;98645.00;5009005;28;20182;-86
2022/06/21 09:44:51;;;;;;;5.13;4.63;;;;;;;32.67;35.58;98610.47;5017686;28;20182;-83
2022/06/21 09:47:33;;;;;;;10.07;4.53;;;;;;;32.79;36.30;98640.38;5052681;28;20201;-83
2022/06/21 09:50:13;;;;;;;5.40;4.45;;;;;;;32.51;37.50;98603.53;4996207;28;20207;-84
2022/06/21 09:52:57;;;;;;;5.03;4.10;;;;;;;32.54;35.94;98634.84;4993301;28;20201;-86
2022/06/21 09:55:48;;;;;;;5.57;4.38;;;;;;;32.73;35.75;98627.59;4991990;28;20201;-88
2022/06/21 09:58:25;;;;;;;6.55;4.85;;;;;;;31.59;35.06;98415.88;4990567;28;20211;-84
2022/06/21 10:01:11;;;;;;;5.82;4.60;;;;;;;33.11;34.37;98630.59;4991030;28;20187;-87
2022/06/21 10:04:29;;;;;;;5.15;4.68;;;;;;;32.57;34.99;98622.41;4990669;28;20183;-86
2022/06/21 10:07:22;;;;;;;5.35;4.80;;;;;;;32.53;34.27;98627.88;4911791;29;20209;-84
2022/06/21 10:10:01;;;;;;;11.77;4.72;;;;;;;32.95;33.96;98632.44;4911784;29;20194;-85
2022/06/21 10:12:50;;;;;;;11.57;4.97;;;;;;;32.63;33.60;98623.84;4912081;29;20193;-85
2022/06/21 10:15:30;;;;;;;9.65;6.00;;;;;;;33.03;32.25;98628.41;4856111;29;20219;-85
2022/06/21 10:18:34;;;;;;;7.45;5.10;;;;;;;31.10;33.38;98244.31;4859073;29;20214;-85
2022/06/21 10:21:19;;;;;;;8.98;5.38;;;;;;;33.57;31.84;98618.19;4874390;29;20199;-86
2022/06/21 10:24:10;;;;;;;11.32;5.28;;;;;;;33.16;31.55;98550.69;4874621;29;20203;-85
2022/06/21 10:27:02;;;;;;;6.07;4.97;;;;;;;33.21;32.01;98614.22;4874656;29;20204;-84
2022/06/21 10:29:47;;;;;;;8.00;5.40;;;;;;;33.75;33.11;98606.53;4873487;29;20254;-84
2022/06/21 10:32:25;;;;;;;9.18;5.75;;;;;;;33.20;32.40;98540.84;4874347;29;20305;-84
2022/06/21 10:35:06;;;;;;;6.47;5.72;;;;;;;33.72;32.98;98598.84;4874813;29;20184;-91
2022/06/21 10:38:45;;;;;;;7.93;6.30;;;;;;;33.62;33.32;98579.38;4874047;29;20218;-84
2022/06/21 10:41:31;;;;;;;7.53;5.68;;;;;;;33.04;33.56;98590.78;4730004;30;20237;-85
2022/06/21 10:44:30;;;;;;;7.75;6.93;;;;;;;32.54;34.91;98572.78;4740359;30;20307;-86
2022/06/21 10:47:04;;;;;;;7.85;6.60;;;;;;;32.67;35.06;98581.63;4747487;30;20713;-84
2022/06/21 10:49:43;;;;;;;11.50;6.90;;;;;;;33.20;34.91;98590.72;4747719;30;20196;-84
2022/06/21 10:52:32;;;;;;;11.52;7.20;;;;;;;33.42;34.59;98593.69;4771138;29;20201;-85
2022/06/21 10:55:18;;;;;;;15.55;7.85;;;;;;;33.44;35.21;98589.19;4801132;29;20259;-85
2022/06/21 10:58:08;;;;;;;8.07;7.18;;;;;;;32.28;34.81;98438.97;4800414;29;20230;-83
2022/06/21 11:04:02;;;;;;;11.73;8.43;;;;;;;33.16;37.03;98582.16;4803910;29;20220;-83
2022/06/21 11:06:54;;;;;;;13.60;7.57;;;;;;;33.46;35.33;98589.94;4750261;30;20282;-84
2022/06/21 11:09:24;;;;;;;12.25;8.07;;;;;;;33.59;34.93;98584.81;4750069;30;20343;-84
2022/06/21 11:15:14;;;;;;;10.43;7.57;;;;;;;33.02;35.62;98566.38;4843752;29;20270;-84
2022/06/21 11:18:16;;;;;;;9.75;7.47;;;;;;;33.19;36.38;98581.13;4895765;29;20226;-85
2022/06/21 11:21:09;;;;;;;7.63;6.93;;;;;;;32.80;36.58;98578.28;4878658;29;20577;-85
2022/06/21 11:23:44;;;;;;;9.65;7.07;;;;;;;32.54;37.95;98506.41;4895726;29;20340;-84
2022/06/21 11:26:34;;;;;;;10.00;7.88;;;;;;;33.08;37.84;98579.16;4896301;29;20191;-83
2022/06/21 11:29:31;;;;;;;10.88;7.40;;;;;;;33.12;36.81;98564.94;4885211;29;20265;-85
2022/06/21 11:32:00;;;;;;;12.95;8.20;;;;;;;33.18;37.29;98575.03;4878217;29;20175;-85
2022/06/21 11:34:42;;;;;;;9.63;7.55;;;;;;;33.60;36.74;98565.47;4878428;29;20183;-86
2022/06/21 11:37:29;;;;;;;10.40;7.78;;;;;;;33.32;36.42;98583.88;4877972;29;20288;-86
2022/06/21 11:40:15;;;;;;;9.60;8.02;;;;;;;33.56;35.90;98584.97;4877962;29;20367;-84
2022/06/21 11:42:52;;;;;;;9.77;7.78;;;;;;;33.84;35.39;98530.59;4899941;28;20213;-84
2022/06/21 11:45:36;;;;;;;10.60;8.75;;;;;;;34.81;35.92;98583.78;4994277;28;20230;-85
2022/06/21 11:48:13;;;;;;;12.88;8.38;;;;;;;35.63;35.05;98578.13;4994306;28;20214;-85
2022/06/21 11:51:00;;;;;;;14.45;9.30;;;;;;;36.31;33.06;98584.50;4994181;28;20628;-83
2022/06/21 11:53:40;;;;;;;13.30;8.65;;;;;;;36.07;33.51;98566.06;4994600;28;20195;-85
2022/06/21 11:56:20;;;;;;;16.20;9.63;;;;;;;36.10;32.53;98552.66;4994408;28;20624;-85
2022/06/21 11:59:06;;;;;;;13.70;9.82;;;;;;;36.55;32.67;98571.31;4994101;28;20187;-86
2022/06/21 12:01:42;;;;;;;10.90;8.82;;;;;;;35.96;33.40;98568.59;4994056;28;20172;-84
2022/06/21 12:04:29;;;;;;;14.90;9.65;;;;;;;36.01;33.38;98519.03;4993840;28;20545;-85
2022/06/21 12:07:07;;;;;;;24.15;16.65;;;;;;;37.01;33.00;98566.03;4992874;28;20608;-85
2022/06/21 12:09:44;;;;;;;16.35;10.40;;;;;;;37.40;32.27;98573.47;4993653;28;20225;-85
2022/06/21 12:12:15;;;;;;;16.23;9.63;;;;;;;38.07;30.77;98571.63;4993406;28;20171;-85
2022/06/21 12:14:59;;;;;;;14.52;8.63;;;;;;;36.50;32.54;98558.47;4994351;28;20530;-84
2022/06/21 12:17:38;;;;;;;11.63;9.55;;;;;;;36.91;31.76;98485.84;4994394;28;20736;-88
2022/06/21 12:20:14;;;;;;;13.48;8.70;;;;;;;37.29;29.50;98412.38;4993914;28;20164;-85
2022/06/21 12:22:52;;;;;;;16.85;10.20;;;;;;;37.84;31.19;98503.88;4993677;28;20170;-86
2022/06/21 12:25:20;;;;;;;13.57;10.35;;;;;;;37.26;31.20;98428.47;4993890;28;20235;-84
2022/06/21 12:27:46;;;;;;;14.52;10.02;;;;;;;37.77;30.66;98500.88;4993712;28;20166;-91
2022/06/21 12:30:21;;;;;;;12.07;9.93;;;;;;;38.06;30.74;98489.75;4994067;28;20164;-89